sensor_id;sensor_type;location;lat;lon;timestamp;P1;durP1;ratioP1;P2;durP2;ratioP2
962;SDS011;469;48.770;9.176;2022-07-06T00:00:50;4.03;;;1.73;;
962;SDS011;469;48.770;9.176;2022-07-06T00:03:17;6.00;;;1.98;;
962;SDS011;469;48.770;9.176;2022-07-06T00:05:44;3.83;;;1.90;;
962;SDS011;469;48.770;9.176;2022-07-06T00:08:13;4.00;;;1.70;;
962;SDS011;469;48.770;9.176;2022-07-06T00:10:40;4.18;;;1.90;;
962;SDS011;469;48.770;9.176;2022-07-06T00:13:07;6.38;;;2.08;;
962;SDS011;469;48.770;9.176;2022-07-06T00:15:34;4.65;;;2.80;;
962;SDS011;469;48.770;9.176;2022-07-06T00:18:02;8.13;;;2.30;;
962;SDS011;469;48.770;9.176;2022-07-06T00:20:29;5.70;;;1.92;;
962;SDS011;469;48.770;9.176;2022-07-06T00:22:57;4.50;;;1.90;;
962;SDS011;469;48.770;9.176;2022-07-06T00:25:25;8.35;;;2.33;;
962;SDS011;469;48.770;9.176;2022-07-06T00:27:52;3.75;;;1.80;;
962;SDS011;469;48.770;9.176;2022-07-06T00:30:19;9.30;;;2.00;;
962;SDS011;469;48.770;9.176;2022-07-06T00:32:46;6.80;;;2.10;;
962;SDS011;469;48.770;9.176;2022-07-06T00:35:13;8.80;;;2.20;;
962;SDS011;469;48.770;9.176;2022-07-06T00:37:40;8.55;;;2.30;;
962;SDS011;469;48.770;9.176;2022-07-06T00:40:07;4.80;;;2.60;;
962;SDS011;469;48.770;9.176;2022-07-06T00:42:40;6.90;;;2.10;;
962;SDS011;469;48.770;9.176;2022-07-06T00:45:08;10.00;;;2.45;;
962;SDS011;469;48.770;9.176;2022-07-06T00:47:35;4.32;;;2.15;;
962;SDS011;469;48.770;9.176;2022-07-06T00:50:03;5.30;;;2.13;;
962;SDS011;469;48.770;9.176;2022-07-06T00:52:47;5.10;;;2.25;;
962;SDS011;469;48.770;9.176;2022-07-06T00:55:15;5.50;;;2.17;;
962;SDS011;469;48.770;9.176;2022-07-06T00:57:43;5.45;;;2.22;;
962;SDS011;469;48.770;9.176;2022-07-06T01:00:11;5.32;;;2.40;;
962;SDS011;469;48.770;9.176;2022-07-06T01:02:39;3.83;;;2.03;;
962;SDS011;469;48.770;9.176;2022-07-06T01:05:06;4.15;;;2.10;;
962;SDS011;469;48.770;9.176;2022-07-06T01:07:34;5.95;;;2.30;;
962;SDS011;469;48.770;9.176;2022-07-06T01:10:02;5.82;;;2.20;;
962;SDS011;469;48.770;9.176;2022-07-06T01:12:29;4.88;;;2.30;;
962;SDS011;469;48.770;9.176;2022-07-06T01:14:58;7.75;;;2.25;;
962;SDS011;469;48.770;9.176;2022-07-06T01:17:28;12.23;;;3.30;;
962;SDS011;469;48.770;9.176;2022-07-06T01:19:55;5.65;;;2.47;;
962;SDS011;469;48.770;9.176;2022-07-06T01:22:23;8.32;;;3.90;;
962;SDS011;469;48.770;9.176;2022-07-06T01:24:50;3.58;;;1.90;;
962;SDS011;469;48.770;9.176;2022-07-06T01:27:18;6.55;;;2.15;;
962;SDS011;469;48.770;9.176;2022-07-06T01:29:45;6.90;;;2.13;;
962;SDS011;469;48.770;9.176;2022-07-06T01:32:12;6.07;;;2.00;;
962;SDS011;469;48.770;9.176;2022-07-06T01:34:40;2.90;;;2.00;;
962;SDS011;469;48.770;9.176;2022-07-06T01:37:07;4.40;;;2.10;;
962;SDS011;469;48.770;9.176;2022-07-06T01:39:35;4.93;;;2.10;;
962;SDS011;469;48.770;9.176;2022-07-06T01:42:03;5.50;;;2.00;;
962;SDS011;469;48.770;9.176;2022-07-06T01:44:30;9.70;;;2.05;;
962;SDS011;469;48.770;9.176;2022-07-06T01:46:57;3.13;;;1.98;;
962;SDS011;469;48.770;9.176;2022-07-06T01:49:24;7.20;;;2.10;;
962;SDS011;469;48.770;9.176;2022-07-06T01:51:51;4.22;;;2.28;;
962;SDS011;469;48.770;9.176;2022-07-06T01:54:18;8.43;;;2.13;;
962;SDS011;469;48.770;9.176;2022-07-06T01:56:46;3.83;;;1.95;;
962;SDS011;469;48.770;9.176;2022-07-06T01:59:13;4.68;;;1.90;;
962;SDS011;469;48.770;9.176;2022-07-06T02:01:40;4.80;;;2.00;;
962;SDS011;469;48.770;9.176;2022-07-06T02:04:07;3.40;;;1.95;;
962;SDS011;469;48.770;9.176;2022-07-06T02:06:34;4.15;;;1.85;;
962;SDS011;469;48.770;9.176;2022-07-06T02:09:01;4.28;;;2.30;;
962;SDS011;469;48.770;9.176;2022-07-06T02:11:29;7.75;;;2.05;;
962;SDS011;469;48.770;9.176;2022-07-06T02:13:57;7.72;;;2.00;;
962;SDS011;469;48.770;9.176;2022-07-06T02:16:24;5.90;;;2.20;;
962;SDS011;469;48.770;9.176;2022-07-06T02:18:51;6.35;;;2.10;;
962;SDS011;469;48.770;9.176;2022-07-06T02:21:21;5.28;;;2.17;;
962;SDS011;469;48.770;9.176;2022-07-06T02:23:48;5.47;;;2.20;;
962;SDS011;469;48.770;9.176;2022-07-06T02:26:15;4.82;;;1.98;;
962;SDS011;469;48.770;9.176;2022-07-06T02:28:42;8.88;;;2.53;;
962;SDS011;469;48.770;9.176;2022-07-06T02:31:11;5.25;;;2.20;;
962;SDS011;469;48.770;9.176;2022-07-06T02:33:38;5.68;;;2.20;;
962;SDS011;469;48.770;9.176;2022-07-06T02:36:06;3.00;;;1.70;;
962;SDS011;469;48.770;9.176;2022-07-06T02:38:33;9.45;;;2.55;;
962;SDS011;469;48.770;9.176;2022-07-06T02:41:00;3.88;;;1.88;;
962;SDS011;469;48.770;9.176;2022-07-06T02:43:27;6.28;;;2.45;;
962;SDS011;469;48.770;9.176;2022-07-06T02:45:54;4.60;;;2.15;;
962;SDS011;469;48.770;9.176;2022-07-06T02:48:22;7.75;;;2.50;;
962;SDS011;469;48.770;9.176;2022-07-06T02:50:49;6.68;;;2.13;;
962;SDS011;469;48.770;9.176;2022-07-06T02:53:17;4.57;;;2.20;;
962;SDS011;469;48.770;9.176;2022-07-06T02:55:44;5.35;;;2.20;;
962;SDS011;469;48.770;9.176;2022-07-06T02:58:11;12.15;;;2.58;;
962;SDS011;469;48.770;9.176;2022-07-06T03:00:38;8.75;;;2.13;;
962;SDS011;469;48.770;9.176;2022-07-06T03:03:05;6.50;;;2.80;;
962;SDS011;469;48.770;9.176;2022-07-06T03:05:35;4.45;;;2.65;;
962;SDS011;469;48.770;9.176;2022-07-06T03:08:02;5.35;;;2.90;;
962;SDS011;469;48.770;9.176;2022-07-06T03:10:29;12.13;;;2.70;;
962;SDS011;469;48.770;9.176;2022-07-06T03:12:56;4.35;;;2.28;;
962;SDS011;469;48.770;9.176;2022-07-06T03:15:23;8.65;;;2.85;;
962;SDS011;469;48.770;9.176;2022-07-06T03:17:50;9.88;;;3.20;;
962;SDS011;469;48.770;9.176;2022-07-06T03:20:17;4.63;;;2.53;;
962;SDS011;469;48.770;9.176;2022-07-06T03:22:46;7.90;;;2.30;;
962;SDS011;469;48.770;9.176;2022-07-06T03:25:13;6.75;;;2.30;;
962;SDS011;469;48.770;9.176;2022-07-06T03:27:40;5.53;;;2.42;;
962;SDS011;469;48.770;9.176;2022-07-06T03:30:07;7.32;;;2.80;;
962;SDS011;469;48.770;9.176;2022-07-06T03:32:34;5.75;;;2.47;;
962;SDS011;469;48.770;9.176;2022-07-06T03:35:01;6.85;;;2.63;;
962;SDS011;469;48.770;9.176;2022-07-06T03:37:28;5.57;;;2.53;;
962;SDS011;469;48.770;9.176;2022-07-06T03:39:57;8.23;;;2.35;;
962;SDS011;469;48.770;9.176;2022-07-06T03:42:24;8.00;;;2.90;;
962;SDS011;469;48.770;9.176;2022-07-06T03:44:51;9.95;;;2.70;;
962;SDS011;469;48.770;9.176;2022-07-06T03:47:18;8.32;;;2.70;;
962;SDS011;469;48.770;9.176;2022-07-06T03:49:45;5.88;;;2.88;;
962;SDS011;469;48.770;9.176;2022-07-06T03:52:12;9.93;;;2.40;;
962;SDS011;469;48.770;9.176;2022-07-06T03:54:39;6.03;;;2.60;;
962;SDS011;469;48.770;9.176;2022-07-06T03:57:07;13.13;;;3.00;;
962;SDS011;469;48.770;9.176;2022-07-06T03:59:36;4.55;;;2.50;;
962;SDS011;469;48.770;9.176;2022-07-06T04:02:03;7.65;;;3.38;;
962;SDS011;469;48.770;9.176;2022-07-06T04:04:30;8.43;;;3.40;;
962;SDS011;469;48.770;9.176;2022-07-06T04:06:58;10.48;;;2.50;;
962;SDS011;469;48.770;9.176;2022-07-06T04:09:25;6.80;;;2.00;;
962;SDS011;469;48.770;9.176;2022-07-06T04:11:52;9.38;;;2.83;;
962;SDS011;469;48.770;9.176;2022-07-06T04:14:20;5.50;;;2.10;;
962;SDS011;469;48.770;9.176;2022-07-06T04:16:47;6.05;;;2.20;;
962;SDS011;469;48.770;9.176;2022-07-06T04:19:14;6.88;;;2.25;;
962;SDS011;469;48.770;9.176;2022-07-06T04:21:41;8.88;;;2.38;;
962;SDS011;469;48.770;9.176;2022-07-06T04:24:08;5.70;;;3.10;;
962;SDS011;469;48.770;9.176;2022-07-06T04:26:35;6.55;;;2.60;;
962;SDS011;469;48.770;9.176;2022-07-06T04:29:02;8.27;;;3.90;;
962;SDS011;469;48.770;9.176;2022-07-06T04:31:31;5.28;;;2.60;;
962;SDS011;469;48.770;9.176;2022-07-06T04:33:58;5.22;;;3.05;;
962;SDS011;469;48.770;9.176;2022-07-06T04:36:25;6.15;;;2.60;;
962;SDS011;469;48.770;9.176;2022-07-06T04:38:52;4.43;;;2.70;;
962;SDS011;469;48.770;9.176;2022-07-06T04:41:19;6.00;;;3.08;;
962;SDS011;469;48.770;9.176;2022-07-06T04:43:46;10.10;;;3.75;;
962;SDS011;469;48.770;9.176;2022-07-06T04:46:13;8.45;;;3.15;;
962;SDS011;469;48.770;9.176;2022-07-06T04:48:41;9.90;;;3.38;;
962;SDS011;469;48.770;9.176;2022-07-06T04:51:08;6.55;;;3.72;;
962;SDS011;469;48.770;9.176;2022-07-06T04:53:35;5.47;;;2.90;;
962;SDS011;469;48.770;9.176;2022-07-06T04:56:03;7.75;;;3.08;;
962;SDS011;469;48.770;9.176;2022-07-06T04:58:30;5.45;;;3.47;;
962;SDS011;469;48.770;9.176;2022-07-06T05:00:57;7.97;;;3.55;;
962;SDS011;469;48.770;9.176;2022-07-06T05:03:24;14.50;;;3.65;;
962;SDS011;469;48.770;9.176;2022-07-06T05:05:52;5.80;;;3.38;;
962;SDS011;469;48.770;9.176;2022-07-06T05:08:19;12.70;;;3.65;;
962;SDS011;469;48.770;9.176;2022-07-06T05:10:47;5.28;;;3.20;;
962;SDS011;469;48.770;9.176;2022-07-06T05:13:14;8.13;;;3.88;;
962;SDS011;469;48.770;9.176;2022-07-06T05:15:41;9.82;;;3.13;;
962;SDS011;469;48.770;9.176;2022-07-06T05:18:08;7.68;;;3.53;;
962;SDS011;469;48.770;9.176;2022-07-06T05:20:35;11.18;;;3.45;;
962;SDS011;469;48.770;9.176;2022-07-06T05:23:04;9.32;;;3.83;;
962;SDS011;469;48.770;9.176;2022-07-06T05:25:31;14.65;;;3.90;;
962;SDS011;469;48.770;9.176;2022-07-06T05:27:58;8.90;;;3.03;;
962;SDS011;469;48.770;9.176;2022-07-06T05:30:25;10.63;;;3.45;;
962;SDS011;469;48.770;9.176;2022-07-06T05:32:52;11.10;;;3.85;;
962;SDS011;469;48.770;9.176;2022-07-06T05:35:19;14.85;;;3.30;;
962;SDS011;469;48.770;9.176;2022-07-06T05:37:46;15.07;;;3.25;;
962;SDS011;469;48.770;9.176;2022-07-06T05:40:14;8.48;;;3.40;;
962;SDS011;469;48.770;9.176;2022-07-06T05:42:41;7.93;;;3.28;;
962;SDS011;469;48.770;9.176;2022-07-06T05:45:09;7.35;;;3.20;;
962;SDS011;469;48.770;9.176;2022-07-06T05:47:36;8.00;;;3.30;;
962;SDS011;469;48.770;9.176;2022-07-06T05:50:21;9.52;;;2.97;;
962;SDS011;469;48.770;9.176;2022-07-06T05:52:55;9.75;;;3.65;;
962;SDS011;469;48.770;9.176;2022-07-06T05:55:23;5.90;;;3.30;;
962;SDS011;469;48.770;9.176;2022-07-06T05:57:51;7.47;;;3.50;;
962;SDS011;469;48.770;9.176;2022-07-06T06:00:19;10.52;;;3.28;;
962;SDS011;469;48.770;9.176;2022-07-06T06:02:46;4.47;;;2.53;;
962;SDS011;469;48.770;9.176;2022-07-06T06:05:13;7.80;;;3.30;;
962;SDS011;469;48.770;9.176;2022-07-06T06:07:40;10.13;;;3.08;;
962;SDS011;469;48.770;9.176;2022-07-06T06:10:09;7.63;;;3.78;;
962;SDS011;469;48.770;9.176;2022-07-06T06:12:38;5.68;;;3.00;;
962;SDS011;469;48.770;9.176;2022-07-06T06:15:05;8.27;;;3.33;;
962;SDS011;469;48.770;9.176;2022-07-06T06:17:33;9.77;;;3.38;;
962;SDS011;469;48.770;9.176;2022-07-06T06:20:00;4.85;;;2.63;;
962;SDS011;469;48.770;9.176;2022-07-06T06:22:27;10.77;;;3.08;;
962;SDS011;469;48.770;9.176;2022-07-06T06:24:54;3.85;;;2.50;;
962;SDS011;469;48.770;9.176;2022-07-06T06:27:21;6.70;;;2.70;;
962;SDS011;469;48.770;9.176;2022-07-06T06:29:50;11.63;;;3.10;;
962;SDS011;469;48.770;9.176;2022-07-06T06:32:17;7.47;;;3.20;;
962;SDS011;469;48.770;9.176;2022-07-06T06:34:44;6.57;;;2.83;;
962;SDS011;469;48.770;9.176;2022-07-06T06:37:11;8.23;;;3.45;;
962;SDS011;469;48.770;9.176;2022-07-06T06:39:44;6.38;;;2.78;;
962;SDS011;469;48.770;9.176;2022-07-06T06:42:11;9.85;;;3.30;;
962;SDS011;469;48.770;9.176;2022-07-06T06:44:38;11.07;;;3.47;;
962;SDS011;469;48.770;9.176;2022-07-06T06:47:07;7.00;;;2.92;;
962;SDS011;469;48.770;9.176;2022-07-06T06:49:34;8.88;;;3.22;;
962;SDS011;469;48.770;9.176;2022-07-06T06:52:01;11.48;;;3.40;;
962;SDS011;469;48.770;9.176;2022-07-06T06:54:28;9.13;;;3.42;;
962;SDS011;469;48.770;9.176;2022-07-06T06:56:55;14.13;;;3.20;;
962;SDS011;469;48.770;9.176;2022-07-06T06:59:22;9.00;;;2.80;;
962;SDS011;469;48.770;9.176;2022-07-06T07:01:49;6.35;;;3.30;;
962;SDS011;469;48.770;9.176;2022-07-06T07:04:17;9.20;;;2.70;;
962;SDS011;469;48.770;9.176;2022-07-06T07:06:44;12.52;;;3.80;;
962;SDS011;469;48.770;9.176;2022-07-06T07:09:12;7.65;;;2.90;;
962;SDS011;469;48.770;9.176;2022-07-06T07:11:39;8.05;;;3.40;;
962;SDS011;469;48.770;9.176;2022-07-06T07:14:06;7.95;;;2.50;;
962;SDS011;469;48.770;9.176;2022-07-06T07:16:33;5.38;;;2.63;;
962;SDS011;469;48.770;9.176;2022-07-06T07:19:00;7.10;;;3.08;;
962;SDS011;469;48.770;9.176;2022-07-06T07:21:28;5.88;;;2.92;;
962;SDS011;469;48.770;9.176;2022-07-06T07:23:55;6.50;;;2.33;;
962;SDS011;469;48.770;9.176;2022-07-06T07:26:22;6.03;;;2.70;;
962;SDS011;469;48.770;9.176;2022-07-06T07:28:49;9.07;;;2.95;;
962;SDS011;469;48.770;9.176;2022-07-06T07:31:16;9.23;;;3.15;;
962;SDS011;469;48.770;9.176;2022-07-06T07:33:43;6.80;;;3.10;;
962;SDS011;469;48.770;9.176;2022-07-06T07:36:11;5.38;;;2.63;;
962;SDS011;469;48.770;9.176;2022-07-06T07:38:39;7.28;;;2.90;;
962;SDS011;469;48.770;9.176;2022-07-06T07:41:06;5.05;;;2.70;;
962;SDS011;469;48.770;9.176;2022-07-06T07:43:36;11.75;;;3.40;;
962;SDS011;469;48.770;9.176;2022-07-06T07:46:03;5.18;;;2.50;;
962;SDS011;469;48.770;9.176;2022-07-06T07:48:30;11.10;;;3.53;;
962;SDS011;469;48.770;9.176;2022-07-06T07:50:57;6.28;;;2.80;;
962;SDS011;469;48.770;9.176;2022-07-06T07:53:24;7.13;;;2.85;;
962;SDS011;469;48.770;9.176;2022-07-06T07:55:53;8.48;;;2.75;;
962;SDS011;469;48.770;9.176;2022-07-06T07:58:20;8.77;;;2.60;;
962;SDS011;469;48.770;9.176;2022-07-06T08:00:47;6.13;;;2.58;;
962;SDS011;469;48.770;9.176;2022-07-06T08:03:14;5.80;;;2.80;;
962;SDS011;469;48.770;9.176;2022-07-06T08:05:41;7.78;;;2.88;;
962;SDS011;469;48.770;9.176;2022-07-06T08:08:08;5.20;;;3.17;;
962;SDS011;469;48.770;9.176;2022-07-06T08:10:35;8.43;;;2.70;;
962;SDS011;469;48.770;9.176;2022-07-06T08:13:03;7.93;;;3.05;;
962;SDS011;469;48.770;9.176;2022-07-06T08:15:32;6.18;;;3.00;;
962;SDS011;469;48.770;9.176;2022-07-06T08:17:59;6.70;;;3.50;;
962;SDS011;469;48.770;9.176;2022-07-06T08:20:26;10.68;;;3.00;;
962;SDS011;469;48.770;9.176;2022-07-06T08:22:53;5.88;;;2.70;;
962;SDS011;469;48.770;9.176;2022-07-06T08:25:20;7.70;;;2.75;;
962;SDS011;469;48.770;9.176;2022-07-06T08:27:47;9.27;;;3.13;;
962;SDS011;469;48.770;9.176;2022-07-06T08:30:16;13.48;;;3.40;;
962;SDS011;469;48.770;9.176;2022-07-06T08:32:43;9.07;;;3.33;;
962;SDS011;469;48.770;9.176;2022-07-06T08:35:10;5.90;;;3.10;;
962;SDS011;469;48.770;9.176;2022-07-06T08:37:37;7.20;;;3.08;;
962;SDS011;469;48.770;9.176;2022-07-06T08:40:05;12.77;;;3.35;;
962;SDS011;469;48.770;9.176;2022-07-06T08:42:32;14.35;;;3.30;;
962;SDS011;469;48.770;9.176;2022-07-06T08:45:00;10.10;;;3.30;;
962;SDS011;469;48.770;9.176;2022-07-06T08:47:28;8.85;;;3.00;;
962;SDS011;469;48.770;9.176;2022-07-06T08:49:56;8.13;;;2.80;;
962;SDS011;469;48.770;9.176;2022-07-06T08:52:23;11.13;;;3.13;;
962;SDS011;469;48.770;9.176;2022-07-06T08:54:51;11.82;;;3.70;;
962;SDS011;469;48.770;9.176;2022-07-06T08:57:18;9.80;;;3.35;;
962;SDS011;469;48.770;9.176;2022-07-06T08:59:45;8.15;;;3.50;;
962;SDS011;469;48.770;9.176;2022-07-06T09:02:13;13.15;;;3.60;;
962;SDS011;469;48.770;9.176;2022-07-06T09:04:41;11.10;;;3.60;;
962;SDS011;469;48.770;9.176;2022-07-06T09:07:09;8.13;;;2.90;;
962;SDS011;469;48.770;9.176;2022-07-06T09:09:36;7.68;;;3.30;;
962;SDS011;469;48.770;9.176;2022-07-06T09:12:04;8.95;;;3.30;;
962;SDS011;469;48.770;9.176;2022-07-06T09:14:31;14.20;;;2.85;;
962;SDS011;469;48.770;9.176;2022-07-06T09:17:01;5.90;;;3.10;;
962;SDS011;469;48.770;9.176;2022-07-06T09:19:28;10.65;;;3.03;;
962;SDS011;469;48.770;9.176;2022-07-06T09:21:58;12.07;;;2.85;;
962;SDS011;469;48.770;9.176;2022-07-06T09:24:25;6.10;;;2.55;;
962;SDS011;469;48.770;9.176;2022-07-06T09:26:53;7.38;;;3.15;;
962;SDS011;469;48.770;9.176;2022-07-06T09:29:24;12.27;;;3.10;;
962;SDS011;469;48.770;9.176;2022-07-06T09:31:56;6.18;;;3.15;;
962;SDS011;469;48.770;9.176;2022-07-06T09:34:24;9.18;;;3.00;;
962;SDS011;469;48.770;9.176;2022-07-06T09:36:52;6.82;;;2.95;;
962;SDS011;469;48.770;9.176;2022-07-06T09:39:21;7.93;;;2.80;;
962;SDS011;469;48.770;9.176;2022-07-06T09:41:49;7.18;;;2.97;;
962;SDS011;469;48.770;9.176;2022-07-06T09:44:20;8.32;;;3.20;;
962;SDS011;469;48.770;9.176;2022-07-06T09:46:47;9.02;;;3.00;;
962;SDS011;469;48.770;9.176;2022-07-06T09:49:16;8.65;;;2.72;;
962;SDS011;469;48.770;9.176;2022-07-06T09:51:44;14.15;;;2.80;;
962;SDS011;469;48.770;9.176;2022-07-06T09:54:11;8.90;;;2.50;;
962;SDS011;469;48.770;9.176;2022-07-06T09:56:40;7.00;;;3.25;;
962;SDS011;469;48.770;9.176;2022-07-06T09:59:08;7.40;;;3.70;;
962;SDS011;469;48.770;9.176;2022-07-06T10:01:36;13.18;;;3.20;;
962;SDS011;469;48.770;9.176;2022-07-06T10:04:03;13.13;;;3.70;;
962;SDS011;469;48.770;9.176;2022-07-06T10:06:30;10.18;;;3.22;;
962;SDS011;469;48.770;9.176;2022-07-06T10:08:57;14.73;;;3.35;;
962;SDS011;469;48.770;9.176;2022-07-06T10:11:25;9.50;;;3.13;;
962;SDS011;469;48.770;9.176;2022-07-06T10:13:54;9.02;;;3.80;;
962;SDS011;469;48.770;9.176;2022-07-06T10:16:22;9.35;;;3.28;;
962;SDS011;469;48.770;9.176;2022-07-06T10:18:49;6.60;;;3.10;;
962;SDS011;469;48.770;9.176;2022-07-06T10:21:18;9.10;;;2.80;;
962;SDS011;469;48.770;9.176;2022-07-06T10:23:46;7.50;;;3.00;;
962;SDS011;469;48.770;9.176;2022-07-06T10:26:14;7.88;;;3.13;;
962;SDS011;469;48.770;9.176;2022-07-06T10:28:41;11.07;;;2.75;;
962;SDS011;469;48.770;9.176;2022-07-06T10:31:10;8.18;;;3.10;;
962;SDS011;469;48.770;9.176;2022-07-06T10:33:37;8.93;;;3.25;;
962;SDS011;469;48.770;9.176;2022-07-06T10:36:06;8.93;;;3.45;;
962;SDS011;469;48.770;9.176;2022-07-06T10:38:34;10.45;;;3.00;;
962;SDS011;469;48.770;9.176;2022-07-06T10:41:02;7.18;;;3.25;;
962;SDS011;469;48.770;9.176;2022-07-06T10:43:32;10.68;;;3.20;;
962;SDS011;469;48.770;9.176;2022-07-06T10:46:04;11.43;;;3.30;;
962;SDS011;469;48.770;9.176;2022-07-06T10:48:35;8.27;;;2.90;;
962;SDS011;469;48.770;9.176;2022-07-06T10:51:02;11.02;;;3.53;;
962;SDS011;469;48.770;9.176;2022-07-06T10:53:31;8.77;;;3.30;;
962;SDS011;469;48.770;9.176;2022-07-06T10:56:00;5.90;;;2.80;;
962;SDS011;469;48.770;9.176;2022-07-06T10:58:37;9.45;;;3.25;;
962;SDS011;469;48.770;9.176;2022-07-06T11:01:05;9.93;;;3.13;;
962;SDS011;469;48.770;9.176;2022-07-06T11:03:37;7.03;;;3.30;;
962;SDS011;469;48.770;9.176;2022-07-06T11:06:05;10.25;;;3.28;;
962;SDS011;469;48.770;9.176;2022-07-06T11:08:42;8.23;;;2.70;;
962;SDS011;469;48.770;9.176;2022-07-06T11:11:10;9.25;;;2.97;;
962;SDS011;469;48.770;9.176;2022-07-06T11:13:41;7.55;;;3.00;;
962;SDS011;469;48.770;9.176;2022-07-06T11:16:09;5.90;;;3.20;;
962;SDS011;469;48.770;9.176;2022-07-06T11:18:40;7.15;;;3.05;;
962;SDS011;469;48.770;9.176;2022-07-06T11:21:14;5.20;;;2.38;;
962;SDS011;469;48.770;9.176;2022-07-06T11:23:41;7.90;;;3.40;;
962;SDS011;469;48.770;9.176;2022-07-06T11:26:09;9.02;;;2.80;;
962;SDS011;469;48.770;9.176;2022-07-06T11:28:36;16.95;;;3.85;;
962;SDS011;469;48.770;9.176;2022-07-06T11:31:04;7.82;;;3.80;;
962;SDS011;469;48.770;9.176;2022-07-06T11:33:31;16.23;;;3.55;;
962;SDS011;469;48.770;9.176;2022-07-06T11:36:12;13.18;;;3.85;;
962;SDS011;469;48.770;9.176;2022-07-06T11:38:39;6.47;;;3.22;;
962;SDS011;469;48.770;9.176;2022-07-06T11:41:06;11.57;;;3.50;;
962;SDS011;469;48.770;9.176;2022-07-06T11:43:33;7.18;;;3.28;;
962;SDS011;469;48.770;9.176;2022-07-06T11:46:02;7.53;;;3.53;;
962;SDS011;469;48.770;9.176;2022-07-06T11:48:29;6.45;;;2.65;;
962;SDS011;469;48.770;9.176;2022-07-06T11:50:57;7.38;;;3.35;;
962;SDS011;469;48.770;9.176;2022-07-06T11:53:26;8.25;;;3.40;;
962;SDS011;469;48.770;9.176;2022-07-06T11:55:53;9.93;;;3.70;;
962;SDS011;469;48.770;9.176;2022-07-06T11:58:21;14.73;;;3.78;;
962;SDS011;469;48.770;9.176;2022-07-06T12:01:03;18.10;;;3.40;;
962;SDS011;469;48.770;9.176;2022-07-06T12:03:30;14.93;;;3.67;;
962;SDS011;469;48.770;9.176;2022-07-06T12:05:59;7.38;;;3.08;;
962;SDS011;469;48.770;9.176;2022-07-06T12:08:28;8.45;;;3.05;;
962;SDS011;469;48.770;9.176;2022-07-06T12:10:55;8.60;;;3.80;;
962;SDS011;469;48.770;9.176;2022-07-06T12:13:22;7.57;;;3.35;;
962;SDS011;469;48.770;9.176;2022-07-06T12:15:49;7.68;;;3.00;;
962;SDS011;469;48.770;9.176;2022-07-06T12:18:17;12.40;;;3.20;;
962;SDS011;469;48.770;9.176;2022-07-06T12:20:44;9.90;;;3.28;;
962;SDS011;469;48.770;9.176;2022-07-06T12:23:11;10.35;;;4.43;;
962;SDS011;469;48.770;9.176;2022-07-06T12:25:39;12.00;;;3.47;;
962;SDS011;469;48.770;9.176;2022-07-06T12:28:06;10.05;;;4.10;;
962;SDS011;469;48.770;9.176;2022-07-06T12:30:47;6.93;;;3.65;;
962;SDS011;469;48.770;9.176;2022-07-06T12:33:14;8.55;;;3.60;;
962;SDS011;469;48.770;9.176;2022-07-06T12:35:43;7.82;;;3.38;;
962;SDS011;469;48.770;9.176;2022-07-06T12:38:10;12.25;;;3.45;;
962;SDS011;469;48.770;9.176;2022-07-06T12:40:37;6.85;;;3.40;;
962;SDS011;469;48.770;9.176;2022-07-06T12:43:05;11.70;;;3.38;;
962;SDS011;469;48.770;9.176;2022-07-06T12:45:32;10.85;;;3.55;;
962;SDS011;469;48.770;9.176;2022-07-06T12:47:59;6.53;;;3.35;;
962;SDS011;469;48.770;9.176;2022-07-06T12:50:30;9.52;;;3.40;;
962;SDS011;469;48.770;9.176;2022-07-06T12:52:58;6.57;;;3.30;;
962;SDS011;469;48.770;9.176;2022-07-06T12:55:26;10.05;;;3.30;;
962;SDS011;469;48.770;9.176;2022-07-06T12:57:55;8.35;;;3.50;;
962;SDS011;469;48.770;9.176;2022-07-06T13:00:23;14.32;;;3.25;;
962;SDS011;469;48.770;9.176;2022-07-06T13:02:51;9.25;;;3.35;;
962;SDS011;469;48.770;9.176;2022-07-06T13:05:22;5.10;;;2.92;;
962;SDS011;469;48.770;9.176;2022-07-06T13:07:52;8.15;;;2.97;;
962;SDS011;469;48.770;9.176;2022-07-06T13:10:20;16.13;;;3.10;;
962;SDS011;469;48.770;9.176;2022-07-06T13:12:47;5.35;;;2.35;;
962;SDS011;469;48.770;9.176;2022-07-06T13:15:16;8.25;;;2.58;;
962;SDS011;469;48.770;9.176;2022-07-06T13:17:43;6.63;;;2.80;;
962;SDS011;469;48.770;9.176;2022-07-06T13:20:11;9.43;;;3.25;;
962;SDS011;469;48.770;9.176;2022-07-06T13:22:38;5.10;;;2.92;;
962;SDS011;469;48.770;9.176;2022-07-06T13:25:06;5.72;;;2.90;;
962;SDS011;469;48.770;9.176;2022-07-06T13:27:33;4.55;;;2.63;;
962;SDS011;469;48.770;9.176;2022-07-06T13:30:00;9.60;;;3.13;;
962;SDS011;469;48.770;9.176;2022-07-06T13:32:29;11.40;;;3.28;;
962;SDS011;469;48.770;9.176;2022-07-06T13:34:56;4.47;;;2.45;;
962;SDS011;469;48.770;9.176;2022-07-06T13:37:23;5.63;;;2.75;;
962;SDS011;469;48.770;9.176;2022-07-06T13:39:50;13.68;;;3.20;;
962;SDS011;469;48.770;9.176;2022-07-06T13:42:17;10.25;;;2.53;;
962;SDS011;469;48.770;9.176;2022-07-06T13:44:44;11.93;;;2.40;;
962;SDS011;469;48.770;9.176;2022-07-06T13:47:11;7.50;;;2.35;;
962;SDS011;469;48.770;9.176;2022-07-06T13:49:39;6.65;;;2.80;;
962;SDS011;469;48.770;9.176;2022-07-06T13:52:07;6.50;;;2.50;;
962;SDS011;469;48.770;9.176;2022-07-06T13:54:34;4.82;;;2.30;;
962;SDS011;469;48.770;9.176;2022-07-06T13:57:02;10.77;;;2.17;;
962;SDS011;469;48.770;9.176;2022-07-06T13:59:29;18.13;;;2.72;;
962;SDS011;469;48.770;9.176;2022-07-06T14:01:57;6.28;;;2.40;;
962;SDS011;469;48.770;9.176;2022-07-06T14:04:24;5.72;;;1.90;;
962;SDS011;469;48.770;9.176;2022-07-06T14:06:52;4.03;;;1.85;;
962;SDS011;469;48.770;9.176;2022-07-06T14:09:19;8.80;;;2.40;;
962;SDS011;469;48.770;9.176;2022-07-06T14:11:46;5.20;;;2.07;;
962;SDS011;469;48.770;9.176;2022-07-06T14:14:13;10.60;;;2.17;;
962;SDS011;469;48.770;9.176;2022-07-06T14:16:40;14.80;;;2.30;;
962;SDS011;469;48.770;9.176;2022-07-06T14:19:08;4.80;;;1.80;;
962;SDS011;469;48.770;9.176;2022-07-06T14:21:35;5.05;;;2.03;;
962;SDS011;469;48.770;9.176;2022-07-06T14:24:04;10.40;;;2.07;;
962;SDS011;469;48.770;9.176;2022-07-06T14:26:31;5.88;;;1.80;;
962;SDS011;469;48.770;9.176;2022-07-06T14:28:58;3.77;;;1.90;;
962;SDS011;469;48.770;9.176;2022-07-06T14:31:25;5.10;;;1.93;;
962;SDS011;469;48.770;9.176;2022-07-06T14:33:52;7.60;;;1.50;;
962;SDS011;469;48.770;9.176;2022-07-06T14:36:19;8.63;;;2.80;;
962;SDS011;469;48.770;9.176;2022-07-06T14:38:46;9.30;;;2.30;;
962;SDS011;469;48.770;9.176;2022-07-06T14:41:15;7.50;;;2.03;;
962;SDS011;469;48.770;9.176;2022-07-06T14:43:42;7.93;;;3.27;;
962;SDS011;469;48.770;9.176;2022-07-06T14:46:09;7.50;;;1.93;;
962;SDS011;469;48.770;9.176;2022-07-06T14:48:36;8.33;;;1.90;;
962;SDS011;469;48.770;9.176;2022-07-06T14:51:04;3.63;;;1.63;;
962;SDS011;469;48.770;9.176;2022-07-06T14:53:31;4.83;;;1.80;;
962;SDS011;469;48.770;9.176;2022-07-06T14:55:58;5.00;;;2.07;;
962;SDS011;469;48.770;9.176;2022-07-06T14:58:26;4.30;;;1.63;;
962;SDS011;469;48.770;9.176;2022-07-06T15:00:53;11.10;;;2.00;;
962;SDS011;469;48.770;9.176;2022-07-06T15:03:20;5.20;;;1.93;;
962;SDS011;469;48.770;9.176;2022-07-06T15:05:48;8.90;;;3.00;;
962;SDS011;469;48.770;9.176;2022-07-06T15:08:15;4.60;;;1.90;;
962;SDS011;469;48.770;9.176;2022-07-06T15:10:43;5.07;;;1.70;;
962;SDS011;469;48.770;9.176;2022-07-06T15:13:10;6.83;;;1.87;;
962;SDS011;469;48.770;9.176;2022-07-06T15:15:39;8.57;;;2.47;;
962;SDS011;469;48.770;9.176;2022-07-06T15:18:06;4.10;;;1.70;;
962;SDS011;469;48.770;9.176;2022-07-06T15:20:33;5.18;;;2.15;;
962;SDS011;469;48.770;9.176;2022-07-06T15:23:03;4.97;;;2.00;;
962;SDS011;469;48.770;9.176;2022-07-06T15:25:30;3.97;;;1.80;;
962;SDS011;469;48.770;9.176;2022-07-06T15:27:58;2.70;;;1.70;;
962;SDS011;469;48.770;9.176;2022-07-06T15:30:26;3.20;;;1.63;;
962;SDS011;469;48.770;9.176;2022-07-06T15:32:55;5.67;;;1.60;;
962;SDS011;469;48.770;9.176;2022-07-06T15:35:22;6.88;;;2.00;;
962;SDS011;469;48.770;9.176;2022-07-06T15:37:49;3.63;;;1.85;;
962;SDS011;469;48.770;9.176;2022-07-06T15:40:16;3.45;;;1.50;;
962;SDS011;469;48.770;9.176;2022-07-06T15:42:48;5.57;;;2.17;;
962;SDS011;469;48.770;9.176;2022-07-06T15:45:16;3.75;;;1.73;;